Time;durP1;ratioP1;P1;durP2;ratioP2;P2;SDS_P1;SDS_P2;PMS_P1;PMS_P2;Temp;Humidity;BMP_temperature;BMP_pressure;BME280_temperature;BME280_humidity;BME280_pressure;Samples;Min_cycle;Max_cycle;Signal;HPM_P1;HPM_P2
2022/07/06 00:01:08;;;;;;;4.55;2.53;;;;;;;15.35;64.67;97915.09;5027064;28;20179;-66
2022/07/06 00:03:35;;;;;;;7.05;2.25;;;;;;;15.41;65.10;97915.94;5026578;28;20220;-66
2022/07/06 00:06:02;;;;;;;4.35;2.47;;;;;;;15.48;64.67;97920.03;5007703;28;20084;-65
2022/07/06 00:08:28;;;;;;;4.20;2.30;;;;;;;15.48;64.93;97914.59;5013114;28;20037;-66
2022/07/06 00:10:55;;;;;;;3.72;2.10;;;;;;;15.42;65.25;97912.94;5026455;28;20401;-66
2022/07/06 00:13:21;;;;;;;5.97;2.60;;;;;;;15.25;66.20;97915.09;5037076;28;20048;-65
2022/07/06 00:15:48;;;;;;;3.65;2.03;;;;;;;15.00;67.08;97906.56;5047196;28;20071;-65
2022/07/06 00:18:15;;;;;;;3.78;2.30;;;;;;;14.75;68.43;97915.44;5050844;28;20048;-65
2022/07/06 00:20:41;;;;;;;4.50;2.50;;;;;;;14.60;69.21;97911.56;5043604;28;20090;-65
2022/07/06 00:23:08;;;;;;;3.72;2.47;;;;;;;14.80;68.81;97907.31;5030572;28;20472;-66
2022/07/06 00:25:35;;;;;;;3.15;2.10;;;;;;;14.89;67.49;97907.63;5030144;28;20057;-65
2022/07/06 00:28:02;;;;;;;3.83;2.33;;;;;;;14.95;67.29;97906.53;5028206;28;20049;-65
2022/07/06 00:30:29;;;;;;;5.50;2.13;;;;;;;14.79;67.63;97911.13;5030248;28;20041;-66
2022/07/06 00:32:58;;;;;;;6.45;2.60;;;;;;;14.76;67.79;97906.16;5041795;28;20056;-66
2022/07/06 00:35:25;;;;;;;4.30;2.40;;;;;;;14.64;68.73;97911.84;5023683;28;20050;-66
2022/07/06 00:37:52;;;;;;;3.95;2.10;;;;;;;14.57;68.75;97912.09;5011523;28;20045;-66
2022/07/06 00:40:18;;;;;;;4.90;2.35;;;;;;;14.70;68.39;97921.66;5009986;28;20058;-66
2022/07/06 00:42:46;;;;;;;4.60;2.15;;;;;;;14.67;67.99;97920.31;5010389;28;20049;-66
2022/07/06 00:45:16;;;;;;;3.38;2.17;;;;;;;14.74;68.47;97925.50;5009934;28;20053;-67
2022/07/06 00:47:43;;;;;;;5.40;2.20;;;;;;;14.68;67.92;97924.66;5009532;28;20042;-66
2022/07/06 00:50:15;;;;;;;6.00;2.45;;;;;;;14.67;67.83;97920.31;5010276;28;20465;-66
2022/07/06 00:52:44;;;;;;;5.43;2.38;;;;;;;14.40;67.84;97921.25;5010126;28;20049;-66
2022/07/06 00:55:11;;;;;;;5.05;2.10;;;;;;;14.61;66.74;97915.09;5010234;28;20035;-66
2022/07/06 00:57:39;;;;;;;4.30;2.03;;;;;;;14.89;65.55;97923.97;5010942;28;20421;-66
2022/07/06 01:12:05;;;;;;;5.28;1.67;;;;;;;15.53;60.78;97911.06;5031530;28;20091;-66
2022/07/06 01:14:32;;;;;;;3.70;1.95;;;;;;;15.55;60.51;97918.97;5009888;28;20495;-66
2022/07/06 01:16:59;;;;;;;3.63;1.88;;;;;;;15.66;59.64;97909.69;5009672;28;20042;-66
2022/07/06 01:19:26;;;;;;;3.55;1.73;;;;;;;15.73;58.90;97906.69;5010009;28;20038;-66
2022/07/06 01:21:52;;;;;;;3.85;2.00;;;;;;;15.80;59.10;97907.22;5009317;28;20064;-65
2022/07/06 01:24:19;;;;;;;3.42;1.52;;;;;;;15.74;59.46;97895.50;5009610;28;20045;-65
2022/07/06 01:26:45;;;;;;;3.97;1.77;;;;;;;15.65;60.40;97893.56;5008711;28;20048;-66
2022/07/06 01:29:12;;;;;;;5.50;1.80;;;;;;;15.44;61.33;97894.38;5008134;28;20528;-66
2022/07/06 01:31:48;;;;;;;4.38;2.20;;;;;;;15.43;61.12;97889.19;5018742;28;20042;-65
2022/07/06 01:34:16;;;;;;;2.92;1.60;;;;;;;15.54;60.23;97892.75;5025423;28;20041;-66
2022/07/06 01:36:44;;;;;;;3.53;2.15;;;;;;;15.57;60.24;97892.22;5009681;28;20045;-66
2022/07/06 01:39:10;;;;;;;4.35;1.83;;;;;;;15.48;60.81;97884.56;5020679;28;20152;-65
2022/07/06 01:41:37;;;;;;;3.33;1.70;;;;;;;15.42;61.49;97887.56;5029099;28;20051;-66
2022/07/06 01:44:04;;;;;;;3.60;1.70;;;;;;;15.36;61.72;97889.47;5028744;28;20103;-65
2022/07/06 01:46:31;;;;;;;3.80;1.70;;;;;;;15.39;61.41;97893.53;5028843;28;20072;-66
2022/07/06 01:48:59;;;;;;;3.72;1.77;;;;;;;15.34;61.57;97895.19;5029084;28;20060;-65
2022/07/06 01:51:26;;;;;;;3.35;1.65;;;;;;;15.27;61.96;97886.47;5027106;28;20065;-65
2022/07/06 01:53:53;;;;;;;3.00;1.90;;;;;;;15.15;62.47;97886.69;5026908;28;20515;-65
2022/07/06 01:56:20;;;;;;;4.35;1.88;;;;;;;15.16;62.09;97890.25;5026769;28;20695;-66
2022/07/06 01:58:51;;;;;;;4.63;2.00;;;;;;;15.05;62.64;97889.41;5027466;28;20054;-66
2022/07/06 02:01:20;;;;;;;5.53;2.33;;;;;;;15.04;62.40;97890.50;5023761;28;20041;-66
2022/07/06 02:03:47;;;;;;;4.18;2.10;;;;;;;15.07;62.67;97893.50;5007542;28;20262;-66
2022/07/06 02:06:14;;;;;;;5.03;2.08;;;;;;;15.05;62.77;97892.13;5009061;28;20124;-66
2022/07/06 02:08:42;;;;;;;4.97;2.42;;;;;;;15.02;63.22;97898.94;5015012;28;20060;-66
2022/07/06 02:11:10;;;;;;;4.32;2.17;;;;;;;15.01;63.13;97897.31;5027263;28;20073;-66
2022/07/06 02:13:39;;;;;;;3.70;2.05;;;;;;;15.00;63.37;97903.81;5027905;28;20092;-66
2022/07/06 02:16:08;;;;;;;4.05;2.00;;;;;;;14.94;63.40;97904.91;5026617;28;20076;-66
2022/07/06 02:18:35;;;;;;;8.25;2.22;;;;;;;14.95;63.75;97906.53;5027030;28;20091;-66
2022/07/06 02:21:03;;;;;;;5.35;2.90;;;;;;;14.92;63.54;97905.19;5026003;28;20309;-66
2022/07/06 02:23:30;;;;;;;4.78;1.85;;;;;;;14.94;64.23;97900.28;5027140;28;20061;-66
2022/07/06 02:25:57;;;;;;;4.75;2.22;;;;;;;14.90;64.50;97904.63;5026728;28;20420;-66
2022/07/06 02:28:25;;;;;;;5.80;2.00;;;;;;;14.90;64.60;97898.34;5026966;28;20100;-66
2022/07/06 02:30:52;;;;;;;5.75;2.33;;;;;;;14.87;64.87;97899.72;5026106;28;20043;-66
2022/07/06 02:33:19;;;;;;;4.13;2.10;;;;;;;14.79;65.49;97900.22;5044643;28;20080;-65
2022/07/06 02:35:46;;;;;;;8.18;3.63;;;;;;;14.80;65.20;97907.31;5046315;28;20045;-66
2022/07/06 02:38:13;;;;;;;3.53;2.15;;;;;;;14.70;65.55;97905.31;5042092;28;20049;-65
2022/07/06 02:40:39;;;;;;;4.88;2.42;;;;;;;14.62;66.39;97911.28;5026551;28;20049;-65
2022/07/06 02:43:06;;;;;;;5.65;2.63;;;;;;;14.63;66.13;97912.94;5026152;28;20049;-66
2022/07/06 02:45:35;;;;;;;5.68;2.58;;;;;;;14.73;66.21;97917.59;5026206;28;20041;-65
2022/07/06 02:48:02;;;;;;;5.45;2.60;;;;;;;14.46;67.03;97913.94;5026639;28;20107;-65
2022/07/06 02:50:29;;;;;;;5.28;2.40;;;;;;;14.63;66.52;97916.47;5026030;28;20517;-66
2022/07/06 02:52:58;;;;;;;6.03;2.80;;;;;;;14.47;67.03;97921.03;5026672;28;20051;-65
2022/07/06 02:55:25;;;;;;;5.45;2.50;;;;;;;14.60;67.04;97917.03;5022594;28;20057;-66
2022/07/06 02:57:52;;;;;;;7.10;2.95;;;;;;;14.54;67.05;97920.78;5026212;28;20048;-65
2022/07/06 03:00:19;;;;;;;5.53;2.70;;;;;;;14.59;66.48;97926.25;5025929;28;20061;-66
2022/07/06 03:02:46;;;;;;;4.50;2.45;;;;;;;14.43;67.58;97928.91;5011554;28;20053;-66
2022/07/06 03:05:14;;;;;;;5.70;2.60;;;;;;;14.43;68.21;97928.91;5006545;28;20535;-66
2022/07/06 03:07:41;;;;;;;5.25;3.20;;;;;;;14.41;67.63;97925.63;5005749;28;20053;-66
2022/07/06 03:10:08;;;;;;;4.03;2.72;;;;;;;14.10;69.35;97932.75;5025820;28;20128;-66
2022/07/06 03:12:35;;;;;;;7.95;3.33;;;;;;;13.72;70.96;97936.31;5025609;28;20045;-65
2022/07/06 03:15:02;;;;;;;4.80;2.60;;;;;;;13.75;70.80;97937.69;5027526;28;20446;-65
2022/07/06 03:17:31;;;;;;;5.63;3.38;;;;;;;13.94;70.19;97932.66;5026249;28;20099;-65
2022/07/06 03:19:58;;;;;;;3.97;3.00;;;;;;;14.03;69.92;97942.00;5026118;28;20046;-65
2022/07/06 03:22:25;;;;;;;5.07;2.92;;;;;;;13.97;70.09;97943.00;5026092;28;20053;-66
2022/07/06 03:24:52;;;;;;;6.55;3.40;;;;;;;14.02;70.20;97940.34;5032901;28;20434;-66
2022/07/06 03:27:19;;;;;;;6.75;3.60;;;;;;;13.97;70.75;97944.94;5026429;28;20049;-66
2022/07/06 03:29:45;;;;;;;10.93;3.45;;;;;;;13.90;70.93;97939.72;5027160;28;20056;-66
2022/07/06 03:32:12;;;;;;;7.47;4.05;;;;;;;13.94;70.71;97945.44;5033877;28;20037;-66
2022/07/06 03:34:39;;;;;;;8.05;3.50;;;;;;;13.88;71.09;97944.56;5030660;28;20049;-66
2022/07/06 03:37:06;;;;;;;4.90;3.15;;;;;;;13.91;71.12;97942.19;5030785;28;20061;-66
2022/07/06 03:39:34;;;;;;;4.80;3.35;;;;;;;13.91;71.17;97946.78;5030715;28;20147;-67
2022/07/06 03:42:02;;;;;;;12.27;3.58;;;;;;;13.89;71.42;97951.66;5043425;28;20342;-66
2022/07/06 03:44:30;;;;;;;7.50;3.80;;;;;;;13.79;71.34;97953.22;5038203;28;20118;-66
2022/07/06 03:46:57;;;;;;;7.50;3.03;;;;;;;13.88;71.49;97950.03;5025674;28;20048;-66
2022/07/06 03:49:27;;;;;;;9.18;4.03;;;;;;;13.86;71.90;97950.28;5025291;28;20053;-66
2022/07/06 03:51:56;;;;;;;6.30;3.80;;;;;;;13.85;72.12;97947.81;5028756;28;20061;-66
2022/07/06 03:54:24;;;;;;;4.32;3.33;;;;;;;13.84;72.20;97957.06;5028834;28;20096;-66
2022/07/06 03:56:55;;;;;;;;;;;;;;;13.84;72.01;97952.44;5013974;28;20120;-66
2022/07/06 03:59:22;;;;;;;6.53;4.00;;;;;;;13.77;72.63;97952.66;5029456;28;19932;-66
2022/07/06 04:01:49;;;;;;;6.25;3.60;;;;;;;13.84;72.67;97952.44;5024110;28;20046;-66
2022/07/06 04:04:16;;;;;;;7.60;4.60;;;;;;;13.86;72.57;97954.91;5009870;28;20503;-66
2022/07/06 04:06:45;;;;;;;5.07;3.63;;;;;;;13.91;72.60;97953.06;5009216;28;20470;-66
2022/07/06 04:09:13;;;;;;;5.00;4.20;;;;;;;13.93;72.86;97958.22;5022068;28;20132;-66
2022/07/06 04:11:40;;;;;;;10.85;4.20;;;;;;;13.99;72.38;97967.25;5029055;28;20048;-66
2022/07/06 04:14:08;;;;;;;13.48;4.53;;;;;;;14.02;72.96;97962.13;5012362;28;20042;-66
2022/07/06 04:16:34;;;;;;;6.80;4.53;;;;;;;14.07;72.24;97958.63;5030563;28;20051;-66
2022/07/06 04:19:01;;;;;;;6.15;4.45;;;;;;;14.05;72.88;97953.44;5028575;28;20451;-67
2022/07/06 04:21:28;;;;;;;9.43;3.97;;;;;;;14.17;72.44;97958.72;5030394;28;20038;-66
2022/07/06 04:23:55;;;;;;;6.15;4.07;;;;;;;14.28;72.15;97953.31;5030363;28;20472;-66
2022/07/06 04:26:22;;;;;;;7.13;4.50;;;;;;;14.28;72.25;97961.50;5028745;28;20044;-66
2022/07/06 04:28:50;;;;;;;8.57;4.70;;;;;;;14.24;72.35;97977.56;5028931;28;20045;-67
2022/07/06 04:31:18;;;;;;;6.82;4.30;;;;;;;14.33;72.33;97969.69;5030316;28;20512;-67
2022/07/06 04:33:47;;;;;;;6.25;4.15;;;;;;;14.43;71.99;97968.94;5048802;28;20072;-66
2022/07/06 04:36:14;;;;;;;6.80;4.03;;;;;;;14.41;71.77;97965.69;5048635;28;20041;-66
2022/07/06 04:38:43;;;;;;;6.70;4.22;;;;;;;14.52;71.54;97974.75;5041143;28;20450;-66
2022/07/06 04:41:11;;;;;;;5.25;3.97;;;;;;;14.58;71.30;97965.50;5029170;28;20042;-66
2022/07/06 04:43:37;;;;;;;6.63;4.03;;;;;;;14.44;71.71;97979.59;5029571;28;20468;-65
2022/07/06 04:46:05;;;;;;;6.50;4.38;;;;;;;14.50;71.52;97977.72;5030202;28;20120;-66
2022/07/06 04:48:38;;;;;;;6.13;3.45;;;;;;;14.64;71.47;97982.69;5028469;28;20049;-66
2022/07/06 04:51:08;;;;;;;6.57;4.50;;;;;;;14.62;71.10;97982.97;5027897;28;20623;-66
2022/07/06 04:53:34;;;;;;;9.43;4.65;;;;;;;14.61;71.63;97984.06;5033652;28;20102;-66
2022/07/06 04:56:01;;;;;;;13.35;4.32;;;;;;;14.70;70.51;97981.63;5038183;28;20070;-66
2022/07/06 04:58:30;;;;;;;7.95;3.70;;;;;;;14.71;71.44;97977.84;5024448;28;20261;-66
2022/07/06 05:00:56;;;;;;;6.30;3.97;;;;;;;14.72;71.20;97981.38;5026480;28;20087;-66
2022/07/06 05:03:24;;;;;;;5.47;3.73;;;;;;;14.85;70.68;97983.66;5012653;28;20128;-66
2022/07/06 05:05:51;;;;;;;6.15;4.00;;;;;;;14.92;70.30;97986.97;5026807;28;20061;-66
2022/07/06 05:08:21;;;;;;;5.32;3.45;;;;;;;14.93;70.47;97983.16;5038181;28;20494;-66
2022/07/06 05:10:49;;;;;;;6.70;3.95;;;;;;;14.92;69.98;97983.41;5041003;28;20088;-66
2022/07/06 05:13:15;;;;;;;7.78;4.22;;;;;;;14.89;70.53;97990.22;5045539;28;20072;-66
2022/07/06 05:15:43;;;;;;;5.63;3.50;;;;;;;14.99;70.06;97988.63;5030998;28;20568;-66
2022/07/06 05:18:09;;;;;;;5.85;4.15;;;;;;;15.10;69.70;97993.03;5034672;28;20151;-66
2022/07/06 05:20:38;;;;;;;6.47;3.75;;;;;;;15.07;69.70;97990.84;5043145;28;20135;-66
2022/07/06 05:23:05;;;;;;;5.15;3.80;;;;;;;15.16;69.41;97992.00;5025746;28;20124;-66
2022/07/06 05:25:32;;;;;;;8.38;3.40;;;;;;;15.25;69.09;97991.47;5036930;28;20045;-66
2022/07/06 05:28:00;;;;;;;7.22;3.95;;;;;;;15.24;69.08;97995.28;5008916;28;20042;-66
2022/07/06 05:30:27;;;;;;;8.35;3.70;;;;;;;15.25;68.85;97997.75;5030971;28;20061;-66
2022/07/06 05:32:54;;;;;;;7.10;4.00;;;;;;;15.12;68.88;97995.50;5028096;28;20137;-66
2022/07/06 05:35:20;;;;;;;7.05;3.63;;;;;;;15.13;69.07;98005.31;5046067;28;20047;-66
2022/07/06 05:38:07;;;;;;;5.70;3.30;;;;;;;15.29;68.75;98003.50;5044643;28;20126;-66
2022/07/06 05:40:34;;;;;;;8.85;3.50;;;;;;;15.40;68.10;97999.69;5031098;28;20033;-66
2022/07/06 05:43:01;;;;;;;5.25;3.53;;;;;;;15.28;68.38;98001.84;5025734;28;20053;-65
2022/07/06 05:45:28;;;;;;;5.75;3.55;;;;;;;15.28;68.55;97999.94;5028151;28;20411;-66
2022/07/06 05:50:42;;;;;;;5.68;3.33;;;;;;;15.50;68.20;98003.53;5040393;28;20411;-66
2022/07/06 05:53:09;;;;;;;6.75;3.35;;;;;;;15.63;67.46;98011.25;5025156;28;20049;-66
2022/07/06 05:55:47;;;;;;;9.05;5.00;;;;;;;15.44;68.25;98013.66;5018684;28;20166;-66
2022/07/06 05:58:14;;;;;;;5.00;3.50;;;;;;;15.44;68.14;98009.00;5031240;28;20054;-66
2022/07/06 06:00:42;;;;;;;6.45;3.15;;;;;;;15.50;67.79;98009.00;5025304;28;20111;-66
2022/07/06 06:03:13;;;;;;;5.97;2.97;;;;;;;15.36;67.94;98008.69;5035315;28;20070;-66
2022/07/06 06:05:41;;;;;;;7.15;3.40;;;;;;;15.30;68.36;98010.59;5024800;28;20049;-66
2022/07/06 06:08:09;;;;;;;4.82;3.10;;;;;;;15.41;68.33;98006.78;5038755;28;20057;-66
2022/07/06 06:10:36;;;;;;;5.20;2.97;;;;;;;15.23;68.62;98012.72;5036117;28;20137;-66
2022/07/06 06:13:07;;;;;;;6.25;3.15;;;;;;;15.36;67.71;98006.78;5027981;28;20501;-66
2022/07/06 06:15:34;;;;;;;6.25;2.97;;;;;;;15.55;67.61;98004.38;5034862;28;20077;-66
2022/07/06 06:18:03;;;;;;;5.55;2.95;;;;;;;15.88;66.96;98011.56;5024952;28;20820;-66
2022/07/06 06:20:30;;;;;;;5.57;3.33;;;;;;;15.85;67.16;98010.19;5036009;28;20124;-66
2022/07/06 06:22:58;;;;;;;8.95;3.08;;;;;;;16.19;65.75;98017.06;5032459;28;20041;-65
2022/07/06 06:25:34;;;;;;;4.50;2.97;;;;;;;16.35;65.06;98018.69;5036468;28;20598;-66
2022/07/06 06:28:05;;;;;;;4.22;2.55;;;;;;;16.35;64.57;98026.91;5039284;28;20041;-66
2022/07/06 06:30:32;;;;;;;5.97;2.80;;;;;;;16.52;64.51;98020.34;5026065;28;20047;-66
2022/07/06 06:33:16;;;;;;;5.47;2.70;;;;;;;16.66;62.83;98028.75;5032849;28;20056;-66
2022/07/06 06:35:47;;;;;;;4.50;2.83;;;;;;;16.73;63.14;98034.78;5025825;28;20368;-66
2022/07/06 06:38:15;;;;;;;5.07;2.47;;;;;;;16.90;61.94;98034.47;5033200;28;20058;-66
2022/07/06 06:40:41;;;;;;;3.20;2.20;;;;;;;17.03;61.40;98033.06;5037349;28;20504;-66
2022/07/06 06:43:09;;;;;;;7.43;2.78;;;;;;;16.83;62.61;98038.59;5008014;28;20041;-66
2022/07/06 06:45:44;;;;;;;3.97;2.60;;;;;;;16.81;62.21;98030.66;5039255;28;20611;-66
2022/07/06 06:48:11;;;;;;;6.43;3.22;;;;;;;16.75;62.83;98032.59;5027219;28;20038;-66
2022/07/06 06:50:42;;;;;;;;;;;;;;;16.81;62.13;98029.84;5038553;28;20489;-66
2022/07/06 06:53:09;;;;;;;6.40;2.50;;;;;;;17.08;62.04;98029.53;5039029;28;19951;-66
2022/07/06 06:55:36;;;;;;;8.55;2.90;;;;;;;16.93;61.41;98024.91;5025018;28;20529;-66
2022/07/06 06:58:02;;;;;;;7.03;2.78;;;;;;;16.81;62.05;98029.84;5038811;28;20544;-66
2022/07/06 07:00:29;;;;;;;4.85;2.75;;;;;;;16.62;62.47;98027.72;5012951;28;20046;-66
2022/07/06 07:02:56;;;;;;;9.07;3.22;;;;;;;16.72;61.93;98027.69;5026338;28;20049;-66
2022/07/06 07:05:23;;;;;;;6.50;2.92;;;;;;;16.81;61.65;98024.38;5045638;28;20048;-66
2022/07/06 07:07:49;;;;;;;6.32;2.70;;;;;;;16.80;62.31;98026.28;5022707;28;20116;-66
2022/07/06 07:10:16;;;;;;;5.38;2.53;;;;;;;16.99;61.97;98026.50;5025574;28;20064;-66
2022/07/06 07:12:44;;;;;;;5.32;2.38;;;;;;;17.00;62.25;98019.94;5029979;28;20580;-66
2022/07/06 07:15:11;;;;;;;6.88;2.75;;;;;;;17.11;61.79;98017.22;5030686;28;20049;-66
2022/07/06 07:17:38;;;;;;;6.32;2.90;;;;;;;17.22;61.28;98016.09;5024921;28;20041;-66
2022/07/06 07:20:05;;;;;;;7.60;2.72;;;;;;;17.17;62.27;98018.81;5038572;28;20049;-66
2022/07/06 07:22:32;;;;;;;5.05;2.70;;;;;;;17.18;61.06;98016.91;5033060;28;20083;-66
2022/07/06 07:24:59;;;;;;;8.18;2.72;;;;;;;17.31;60.79;98018.25;5027947;28;20471;-66
2022/07/06 07:27:26;;;;;;;4.97;2.70;;;;;;;17.40;60.62;98022.03;5027151;28;20061;-65
2022/07/06 07:29:53;;;;;;;5.78;2.90;;;;;;;17.28;60.22;98020.44;5027016;28;20515;-65
2022/07/06 07:32:19;;;;;;;5.88;2.60;;;;;;;17.60;59.40;98017.53;5036250;28;20044;-66
2022/07/06 07:34:46;;;;;;;4.55;2.42;;;;;;;17.59;58.72;98014.00;5046499;28;20045;-66
2022/07/06 07:37:13;;;;;;;3.97;2.40;;;;;;;17.74;58.72;98021.28;5046646;28;20045;-66
2022/07/06 07:39:39;;;;;;;4.97;2.30;;;;;;;17.89;58.50;98017.63;5031815;28;20041;-66
2022/07/06 07:42:06;;;;;;;6.43;2.40;;;;;;;17.65;58.59;98021.06;5026756;28;20033;-66
2022/07/06 07:44:33;;;;;;;10.57;3.13;;;;;;;17.40;59.65;98016.56;5029587;28;20056;-66
2022/07/06 07:46:59;;;;;;;5.85;2.35;;;;;;;17.39;60.52;98017.63;5024711;28;20053;-66
2022/07/06 07:49:26;;;;;;;5.45;2.50;;;;;;;17.61;59.71;98011.78;5029176;28;20059;-66
2022/07/06 07:51:53;;;;;;;4.78;2.20;;;;;;;17.62;59.73;98007.13;5045083;28;20040;-66
2022/07/06 07:54:19;;;;;;;6.07;2.70;;;;;;;17.46;61.22;98017.34;5040705;28;20045;-66
2022/07/06 07:56:46;;;;;;;5.70;2.45;;;;;;;17.80;60.79;98011.13;5035302;28;20045;-66
2022/07/06 07:59:12;;;;;;;6.05;2.83;;;;;;;17.80;60.72;98019.34;5036285;28;20500;-66
2022/07/06 08:01:40;;;;;;;5.70;2.80;;;;;;;18.12;60.23;98020.78;5008141;28;20042;-66
2022/07/06 08:04:07;;;;;;;7.22;3.15;;;;;;;18.07;60.30;98020.81;5007250;28;20124;-65
2022/07/06 08:06:34;;;;;;;4.35;2.45;;;;;;;17.97;60.12;98026.34;5007189;28;20046;-66
2022/07/06 08:09:02;;;;;;;6.63;2.92;;;;;;;18.25;59.10;98015.75;5017863;28;20053;-66
2022/07/06 08:11:29;;;;;;;4.60;2.33;;;;;;;18.32;57.44;98025.28;5026263;28;20038;-65
2022/07/06 08:13:56;;;;;;;5.32;2.95;;;;;;;18.35;57.17;98034.84;5027107;28;20056;-66
2022/07/06 08:16:22;;;;;;;7.75;2.95;;;;;;;18.27;58.08;98030.81;5026017;28;20045;-65
2022/07/06 08:18:49;;;;;;;6.68;3.30;;;;;;;18.04;58.40;98024.09;5026932;28;20416;-65
2022/07/06 08:21:15;;;;;;;9.43;3.67;;;;;;;18.03;56.84;98020.53;5027341;28;20049;-65
2022/07/06 08:23:52;;;;;;;8.27;3.10;;;;;;;18.06;57.83;98025.44;5027144;28;20405;-66
2022/07/06 08:26:19;;;;;;;5.22;2.75;;;;;;;18.19;57.82;98006.75;5026855;28;20215;-66
2022/07/06 08:28:46;;;;;;;5.55;2.95;;;;;;;18.43;57.99;98009.56;5026629;28;20046;-66
2022/07/06 08:31:13;;;;;;;5.20;2.42;;;;;;;18.46;57.87;98021.88;5028140;28;20047;-66
2022/07/06 08:33:59;;;;;;;4.57;2.42;;;;;;;18.59;57.99;98020.41;5046590;28;20048;-66
2022/07/06 08:36:26;;;;;;;6.88;2.70;;;;;;;18.56;57.19;98019.06;5046872;28;20292;-66
2022/07/06 08:38:54;;;;;;;6.45;2.95;;;;;;;18.55;57.90;98019.34;5041046;28;20041;-66
2022/07/06 08:41:23;;;;;;;5.70;3.22;;;;;;;18.65;57.33;98019.22;5029896;28;20132;-66
2022/07/06 08:43:52;;;;;;;6.63;3.25;;;;;;;18.59;57.61;98018.47;5030648;28;20052;-66
2022/07/06 08:46:20;;;;;;;6.07;2.60;;;;;;;18.78;57.31;98020.47;5029749;28;20084;-66
2022/07/06 08:48:48;;;;;;;5.57;2.33;;;;;;;18.98;56.56;98024.94;5030218;28;20132;-66
2022/07/06 08:51:16;;;;;;;4.43;2.50;;;;;;;19.16;56.05;98011.56;5028578;28;20380;-66
2022/07/06 08:53:44;;;;;;;5.40;3.28;;;;;;;18.95;56.24;98028.25;5030672;28;20516;-66
2022/07/06 08:56:12;;;;;;;4.70;2.60;;;;;;;18.89;56.32;98031.34;5029379;28;20037;-66
2022/07/06 08:58:41;;;;;;;5.85;2.70;;;;;;;18.92;56.02;98023.38;5029951;28;20120;-66
2022/07/06 09:01:11;;;;;;;6.90;3.20;;;;;;;18.97;55.18;98023.28;5013988;28;20402;-66
2022/07/06 09:03:41;;;;;;;8.63;3.20;;;;;;;19.08;54.54;98023.19;5009785;28;20030;-66
2022/07/06 09:06:08;;;;;;;5.65;3.00;;;;;;;18.98;55.60;98029.59;5010137;28;20497;-66
2022/07/06 09:08:39;;;;;;;4.05;2.90;;;;;;;19.07;54.84;98025.16;5017132;28;20042;-66
2022/07/06 09:11:06;;;;;;;6.37;2.87;;;;;;;19.23;55.27;98019.47;5029535;28;20045;-66
2022/07/06 09:13:32;;;;;;;6.25;2.90;;;;;;;19.44;55.00;98035.69;5029890;28;20342;-66
2022/07/06 09:16:13;;;;;;;9.88;3.40;;;;;;;19.36;54.83;98032.47;5028928;28;20038;-66
2022/07/06 09:19:00;;;;;;;7.78;3.15;;;;;;;19.92;53.99;98039.44;5029597;28;20046;-66
2022/07/06 09:21:31;;;;;;;6.47;3.28;;;;;;;20.01;52.38;98035.75;5029210;28;20054;-66
2022/07/06 09:24:02;;;;;;;4.88;2.80;;;;;;;20.09;52.60;98027.94;5029881;28;20095;-66
2022/07/06 09:26:29;;;;;;;6.45;3.03;;;;;;;20.23;51.76;98030.75;5028625;28;20065;-66
2022/07/06 09:28:56;;;;;;;5.22;2.55;;;;;;;20.20;53.16;98029.41;5029745;28;20056;-66
2022/07/06 09:31:23;;;;;;;7.53;3.10;;;;;;;20.07;53.33;98033.75;5031957;28;20571;-66
2022/07/06 09:33:58;;;;;;;6.47;3.03;;;;;;;20.28;53.20;98039.72;5049223;28;20029;-66
2022/07/06 09:36:36;;;;;;;5.00;2.85;;;;;;;20.16;53.43;98038.56;5048967;28;20045;-66
2022/07/06 09:39:19;;;;;;;6.82;3.35;;;;;;;19.70;54.54;98046.31;5028809;28;20056;-66
2022/07/06 09:41:48;;;;;;;10.02;3.20;;;;;;;19.56;55.51;98040.72;5021395;28;20178;-66
2022/07/06 09:44:26;;;;;;;8.82;3.25;;;;;;;19.43;56.11;98034.88;5027142;28;20381;-67
2022/07/06 09:46:56;;;;;;;5.70;3.53;;;;;;;19.62;55.21;98040.41;5034069;28;20128;-66
2022/07/06 09:49:24;;;;;;;11.20;3.75;;;;;;;19.72;54.86;98038.63;5044978;28;20064;-66
2022/07/06 09:51:54;;;;;;;7.40;3.08;;;;;;;20.12;53.76;98050.16;5045502;28;20048;-66
2022/07/06 09:54:20;;;;;;;8.23;3.50;;;;;;;19.98;55.10;98050.06;5010769;28;20411;-66
2022/07/06 09:56:51;;;;;;;5.65;3.25;;;;;;;19.91;54.75;98048.78;5020299;28;20523;-66
2022/07/06 09:59:26;;;;;;;6.75;2.95;;;;;;;20.15;54.30;98048.72;5028149;28;20476;-66
2022/07/06 10:01:54;;;;;;;5.80;3.42;;;;;;;20.32;52.68;98053.69;5021397;28;20045;-66
2022/07/06 10:04:22;;;;;;;6.38;3.28;;;;;;;20.51;52.91;98063.84;5027059;28;20104;-66
2022/07/06 10:06:49;;;;;;;7.90;3.25;;;;;;;20.49;52.97;98060.59;5025409;28;20052;-65
2022/07/06 10:09:18;;;;;;;13.93;4.20;;;;;;;20.42;52.36;98057.41;5037243;28;20045;-66
2022/07/06 10:11:57;;;;;;;9.95;4.10;;;;;;;20.79;51.64;98063.94;5024639;28;20289;-66
2022/07/06 10:14:27;;;;;;;8.18;3.75;;;;;;;20.48;52.00;98057.00;5026350;28;20049;-66
2022/07/06 10:17:00;;;;;;;7.60;3.28;;;;;;;20.58;51.82;98067.03;5026182;28;20053;-65
2022/07/06 10:19:29;;;;;;;6.80;3.13;;;;;;;20.61;50.96;98047.19;5026234;28;20052;-65
2022/07/06 10:22:00;;;;;;;10.80;3.47;;;;;;;20.61;51.08;98052.69;5029063;28;20060;-66
2022/07/06 10:24:28;;;;;;;5.78;3.60;;;;;;;20.55;51.18;98064.88;5044621;28;20397;-66
2022/07/06 10:26:55;;;;;;;8.93;3.78;;;;;;;20.64;51.23;98065.00;5025802;28;20041;-66
2022/07/06 10:29:24;;;;;;;6.22;3.55;;;;;;;20.51;51.29;98059.16;5040325;28;20049;-66
2022/07/06 10:31:52;;;;;;;6.78;3.15;;;;;;;20.94;51.02;98062.03;5041449;28;20048;-65
2022/07/06 10:34:19;;;;;;;7.75;3.42;;;;;;;20.93;50.25;98058.44;5045770;28;20527;-66
2022/07/06 10:36:54;;;;;;;7.03;3.10;;;;;;;20.87;50.17;98057.75;5045636;28;20060;-66
2022/07/06 10:42:43;;;;;;;8.27;4.00;;;;;;;20.91;50.15;98060.72;5045503;28;20060;-66
2022/07/06 10:45:11;;;;;;;8.48;4.10;;;;;;;20.90;49.21;98070.09;5045955;28;20071;-66
2022/07/06 10:47:40;;;;;;;8.05;3.50;;;;;;;20.92;50.50;98057.66;5042795;28;20052;-66
2022/07/06 10:50:07;;;;;;;10.90;4.47;;;;;;;20.62;50.75;98057.06;5033499;28;20111;-66
2022/07/06 10:52:50;;;;;;;6.82;3.50;;;;;;;21.04;50.99;98057.16;5016399;28;20048;-65
2022/07/06 10:55:33;;;;;;;4.80;3.25;;;;;;;21.41;48.91;98061.97;5037690;28;20052;-66
2022/07/06 10:58:00;;;;;;;7.03;3.80;;;;;;;20.79;50.06;98061.19;5025373;28;20064;-66
2022/07/06 11:00:42;;;;;;;8.85;4.20;;;;;;;20.47;51.04;98068.31;5026177;28;20053;-66
2022/07/06 11:03:31;;;;;;;8.40;4.47;;;;;;;20.85;49.34;98067.38;5020581;28;20064;-66
2022/07/06 11:05:59;;;;;;;6.20;3.53;;;;;;;21.27;49.04;98065.50;5015500;28;20037;-66
2022/07/06 11:08:59;;;;;;;5.35;3.30;;;;;;;21.27;49.53;98062.75;5025223;28;20281;-66
2022/07/06 11:11:36;;;;;;;8.38;3.70;;;;;;;21.40;48.81;98063.06;5026337;28;20501;-66
2022/07/06 11:14:10;;;;;;;5.65;3.00;;;;;;;22.44;46.30;98049.78;5045068;28;20048;-65
2022/07/06 11:17:02;;;;;;;6.05;3.28;;;;;;;22.35;46.13;98052.47;5027939;28;20064;-66
2022/07/06 11:19:29;;;;;;;6.97;3.20;;;;;;;22.17;45.66;98052.34;5022682;28;20061;-66
2022/07/06 11:22:09;;;;;;;8.50;2.95;;;;;;;22.18;45.77;98055.88;5025743;28;20085;-66
2022/07/06 11:24:38;;;;;;;5.70;3.17;;;;;;;21.42;47.41;98050.63;5036105;28;20060;-66
2022/07/06 11:27:06;;;;;;;8.77;3.30;;;;;;;21.51;47.25;98052.66;5034480;28;20346;-66
2022/07/06 11:29:35;;;;;;;8.25;3.97;;;;;;;20.86;48.50;98045.06;5039138;28;20052;-66
2022/07/06 11:32:03;;;;;;;4.78;2.80;;;;;;;21.25;48.82;98047.66;5034453;28;20048;-66
2022/07/06 11:34:36;;;;;;;8.07;3.53;;;;;;;21.28;49.28;98047.06;5041320;28;20049;-66
2022/07/06 11:37:07;;;;;;;7.05;3.40;;;;;;;20.97;49.01;98055.94;5035196;28;20049;-66
2022/07/06 11:39:36;;;;;;;6.97;3.00;;;;;;;21.44;48.11;98036.53;5027246;28;20041;-66
2022/07/06 11:42:07;;;;;;;8.52;3.00;;;;;;;21.33;47.36;98041.44;5037437;28;20049;-66
2022/07/06 11:44:35;;;;;;;6.35;3.75;;;;;;;21.55;47.42;98040.72;5038940;28;20045;-66
2022/07/06 11:47:03;;;;;;;7.65;3.22;;;;;;;22.10;46.07;98046.44;5022162;28;20056;-66
2022/07/06 11:49:31;;;;;;;6.93;2.70;;;;;;;22.70;45.21;98033.38;5012427;28;20124;-67
2022/07/06 11:51:58;;;;;;;4.60;2.60;;;;;;;23.09;44.42;98041.22;5025939;28;20048;-66
2022/07/06 11:54:26;;;;;;;6.65;3.38;;;;;;;22.15;45.73;98038.03;5030148;28;20517;-66
2022/07/06 11:56:54;;;;;;;5.88;2.95;;;;;;;22.43;45.40;98040.66;5037554;28;20067;-66
2022/07/06 11:59:23;;;;;;;5.18;2.90;;;;;;;22.71;44.69;98032.25;5025021;28;20233;-67